createdAt,value
2022-11-16T00:00:21.491Z,57.03
2022-11-16T00:01:21.463Z,57.19
2022-11-16T00:02:21.536Z,56.69
2022-11-16T00:03:21.422Z,56.78
2022-11-16T00:04:21.419Z,56.62
2022-11-16T00:05:25.659Z,57.31
2022-11-16T00:06:23.423Z,58.17
2022-11-16T00:07:21.430Z,62.86
2022-11-16T00:08:21.387Z,66.92
2022-11-16T00:09:21.394Z,58.41
2022-11-16T00:10:21.371Z,57.12
2022-11-16T00:11:21.504Z,58.55
2022-11-16T00:12:21.371Z,64.94
2022-11-16T00:13:21.360Z,58.18
2022-11-16T00:14:21.365Z,66.72
2022-11-16T00:15:21.346Z,63.83
2022-11-16T00:16:21.339Z,59.77
2022-11-16T00:17:21.354Z,61.57
2022-11-16T00:18:21.327Z,61.47
2022-11-16T00:19:21.358Z,64.59
2022-11-16T00:20:21.343Z,62.79
2022-11-16T00:21:21.303Z,62.24
2022-11-16T00:22:21.302Z,62.12
2022-11-16T00:23:21.293Z,57.41
2022-11-16T00:24:21.298Z,65.01
2022-11-16T00:25:21.286Z,62.41
2022-11-16T00:26:21.282Z,66.65
2022-11-16T00:27:21.296Z,58.71
2022-11-16T00:28:21.256Z,59.01
2022-11-16T00:29:21.251Z,60.45
2022-11-16T00:30:21.244Z,58.30
2022-11-16T00:31:21.246Z,57.04
2022-11-16T00:32:21.249Z,57.33
2022-11-16T00:33:21.226Z,58.80
2022-11-16T00:34:21.255Z,57.90
2022-11-16T00:35:21.226Z,56.64
2022-11-16T00:36:21.206Z,56.89
2022-11-16T00:37:21.202Z,57.53
2022-11-16T00:38:21.209Z,57.72
2022-11-16T00:39:21.258Z,58.12
2022-11-16T00:40:21.191Z,58.15
2022-11-16T00:41:21.156Z,58.48
2022-11-16T00:42:21.163Z,58.22
2022-11-16T00:43:21.178Z,59.19
2022-11-16T00:44:21.148Z,59.66
2022-11-16T00:45:21.183Z,58.55
2022-11-16T00:46:21.143Z,57.46
2022-11-16T00:47:21.138Z,58.27
2022-11-16T00:48:21.126Z,58.77
2022-11-16T00:49:21.110Z,65.84
2022-11-16T00:50:21.132Z,58.19
2022-11-16T00:51:21.084Z,56.87
2022-11-16T00:52:22.115Z,56.69
2022-11-16T00:53:21.091Z,61.48
2022-11-16T00:54:21.092Z,58.55
2022-11-16T00:55:21.073Z,60.44
2022-11-16T00:56:21.090Z,57.13
2022-11-16T00:57:21.090Z,61.31
2022-11-16T00:58:21.061Z,57.80
2022-11-16T00:59:21.060Z,62.42
2022-11-16T01:00:21.039Z,56.55
2022-11-16T01:01:21.149Z,56.82
2022-11-16T01:02:21.059Z,57.10
2022-11-16T01:03:21.027Z,58.10
2022-11-16T01:04:21.015Z,69.90
2022-11-16T01:05:21.028Z,57.36
2022-11-16T01:06:21.002Z,56.56
2022-11-16T01:07:21.075Z,61.91
2022-11-16T01:08:21.028Z,63.69
2022-11-16T01:09:21.019Z,56.67
2022-11-16T01:10:20.978Z,56.59
2022-11-16T01:11:21.005Z,57.16
2022-11-16T01:12:21.695Z,62.31
2022-11-16T01:13:21.017Z,59.25
2022-11-16T01:14:20.966Z,58.66
2022-11-16T01:15:20.961Z,59.17
2022-11-16T01:16:20.938Z,61.98
2022-11-16T01:17:20.937Z,58.58
2022-11-16T01:18:20.939Z,62.74
2022-11-16T01:19:20.948Z,57.54
2022-11-16T01:20:20.927Z,57.76
2022-11-16T01:21:20.910Z,57.96
2022-11-16T01:22:21.891Z,66.44
2022-11-16T01:23:20.882Z,59.18
2022-11-16T01:24:20.895Z,66.99
2022-11-16T01:25:20.880Z,58.24
2022-11-16T01:26:20.872Z,60.71
2022-11-16T01:27:20.890Z,59.66
2022-11-16T01:28:20.854Z,63.03
2022-11-16T01:29:20.866Z,58.92
2022-11-16T01:30:20.838Z,63.99
2022-11-16T01:31:20.843Z,66.33
2022-11-16T01:32:20.928Z,57.70
2022-11-16T01:33:20.827Z,57.89
2022-11-16T01:34:20.818Z,60.71
2022-11-16T01:35:20.829Z,57.48
2022-11-16T01:36:20.802Z,56.98
2022-11-16T01:37:21.691Z,57.76
2022-11-16T01:38:20.781Z,61.88
2022-11-16T01:39:20.781Z,59.02
2022-11-16T01:40:20.773Z,58.09
2022-11-16T01:41:20.773Z,58.05
2022-11-16T01:42:20.807Z,57.78
2022-11-16T01:43:20.765Z,65.51
2022-11-16T01:44:20.757Z,62.77
2022-11-16T01:45:20.755Z,62.00
2022-11-16T01:46:20.737Z,58.45
2022-11-16T01:47:20.725Z,58.69
2022-11-16T01:48:20.782Z,58.33
2022-11-16T01:49:20.741Z,59.13
2022-11-16T01:50:20.707Z,61.88
2022-11-16T01:51:20.697Z,58.46
2022-11-16T01:52:21.729Z,58.70
2022-11-16T01:53:20.686Z,66.44
2022-11-16T01:54:20.702Z,57.56
2022-11-16T01:55:20.694Z,57.29
2022-11-16T01:56:20.691Z,57.83
2022-11-16T01:57:20.665Z,58.63
2022-11-16T01:58:20.657Z,61.05
2022-11-16T01:59:20.665Z,62.32
2022-11-16T02:00:20.650Z,62.73
2022-11-16T02:01:20.696Z,57.27
2022-11-16T02:02:20.649Z,58.01
2022-11-16T02:03:20.629Z,57.54
2022-11-16T02:04:20.630Z,58.44
2022-11-16T02:05:20.629Z,58.05
2022-11-16T02:06:20.618Z,57.54
2022-11-16T02:07:20.696Z,58.43
2022-11-16T02:08:20.585Z,62.64
2022-11-16T02:09:20.592Z,58.55
2022-11-16T02:10:20.593Z,58.24
2022-11-16T02:11:20.569Z,57.99
2022-11-16T02:12:20.594Z,58.17
2022-11-16T02:13:20.569Z,57.94
2022-11-16T02:14:20.565Z,63.27
2022-11-16T02:15:20.560Z,63.37
2022-11-16T02:16:20.651Z,63.96
2022-11-16T02:17:20.539Z,66.20
2022-11-16T02:18:20.563Z,63.04
2022-11-16T02:19:20.527Z,57.78
2022-11-16T02:20:20.520Z,57.76
2022-11-16T02:21:20.561Z,58.03
2022-11-16T02:22:20.500Z,56.67
2022-11-16T02:23:20.508Z,68.56
2022-11-16T02:24:20.488Z,59.23
2022-11-16T02:25:20.507Z,64.91
2022-11-16T02:26:20.589Z,57.26
2022-11-16T02:27:20.491Z,58.32
2022-11-16T02:28:20.471Z,57.05
2022-11-16T02:29:20.456Z,57.25
2022-11-16T02:30:20.472Z,60.00
2022-11-16T02:31:20.494Z,61.19
2022-11-16T02:32:20.443Z,59.31
2022-11-16T02:33:20.432Z,58.34
2022-11-16T02:34:20.423Z,57.67
2022-11-16T02:35:20.428Z,63.68
2022-11-16T02:36:20.451Z,68.02
2022-11-16T02:37:20.402Z,58.84
2022-11-16T02:38:20.400Z,59.83
2022-11-16T02:39:20.382Z,66.34
2022-11-16T02:40:20.393Z,61.42
2022-11-16T02:41:20.386Z,57.93
2022-11-16T02:42:20.374Z,58.21
2022-11-16T02:43:20.358Z,66.04
2022-11-16T02:44:20.354Z,57.30
2022-11-16T02:45:20.353Z,66.57
2022-11-16T02:46:20.353Z,61.88
2022-11-16T02:47:20.334Z,57.54
2022-11-16T02:48:20.324Z,57.86
2022-11-16T02:49:20.330Z,61.27
2022-11-16T02:50:20.326Z,67.03
2022-11-16T02:51:20.314Z,58.25
2022-11-16T02:52:20.302Z,64.99
2022-11-16T02:53:20.295Z,60.79
2022-11-16T02:54:20.289Z,56.83
2022-11-16T02:55:20.294Z,56.67
2022-11-16T02:56:20.287Z,57.27
2022-11-16T02:57:20.290Z,57.16
2022-11-16T02:58:20.278Z,61.95
2022-11-16T02:59:20.245Z,56.63
2022-11-16T03:00:20.261Z,56.88
2022-11-16T03:01:20.329Z,66.03
2022-11-16T03:02:20.255Z,57.46
2022-11-16T03:03:20.235Z,56.39
2022-11-16T03:04:20.223Z,56.79
2022-11-16T03:05:20.230Z,61.04
2022-11-16T03:06:20.222Z,58.50
2022-11-16T03:07:20.289Z,56.69
2022-11-16T03:08:20.203Z,56.96
2022-11-16T03:09:20.194Z,64.56
2022-11-16T03:10:20.195Z,60.55
2022-11-16T03:11:20.199Z,60.37
2022-11-16T03:12:52.201Z,58.63
2022-11-16T03:13:20.164Z,66.12
2022-11-16T03:14:20.160Z,58.72
2022-11-16T03:15:20.159Z,61.71
2022-11-16T03:16:20.273Z,59.45
2022-11-16T03:17:20.137Z,60.48
2022-11-16T03:18:20.136Z,57.10
2022-11-16T03:19:20.119Z,59.68
2022-11-16T03:20:20.113Z,62.00
2022-11-16T03:21:20.137Z,66.15
2022-11-16T03:22:21.106Z,63.66
2022-11-16T03:23:20.087Z,61.38
2022-11-16T03:24:20.086Z,56.88
2022-11-16T03:25:20.086Z,60.08
2022-11-16T03:26:20.086Z,56.66
2022-11-16T03:27:20.097Z,59.41
2022-11-16T03:28:20.062Z,63.97
2022-11-16T03:29:20.058Z,60.95
2022-11-16T03:30:23.373Z,56.56
2022-11-16T03:31:21.044Z,65.93
2022-11-16T03:32:20.061Z,65.85
2022-11-16T03:33:22.595Z,60.78
2022-11-16T03:34:21.261Z,64.16
2022-11-16T03:35:20.022Z,62.34
2022-11-16T03:36:20.013Z,62.31
2022-11-16T03:37:19.998Z,60.81
2022-11-16T03:38:20.021Z,57.63
2022-11-16T03:39:19.993Z,62.08
2022-11-16T03:40:19.983Z,57.98
2022-11-16T03:41:19.981Z,65.70
2022-11-16T03:42:20.013Z,67.86
2022-11-16T03:43:19.969Z,58.71
2022-11-16T03:44:19.951Z,63.73
2022-11-16T03:45:19.957Z,59.54
2022-11-16T03:46:19.940Z,61.16
2022-11-16T03:47:19.934Z,60.43
2022-11-16T03:48:19.936Z,66.35
2022-11-16T03:49:19.944Z,60.99
2022-11-16T03:50:19.936Z,62.36
2022-11-16T03:51:19.901Z,67.14
2022-11-16T03:52:20.678Z,61.02
2022-11-16T03:53:19.904Z,66.39
2022-11-16T03:54:19.897Z,66.94
2022-11-16T03:55:19.877Z,63.37
2022-11-16T03:56:19.877Z,60.87
2022-11-16T03:57:19.948Z,64.85
2022-11-16T03:58:19.848Z,63.48
2022-11-16T03:59:19.859Z,63.15
2022-11-16T04:00:19.843Z,66.32
2022-11-16T04:01:20.076Z,71.32
2022-11-16T04:02:19.850Z,59.23
2022-11-16T04:03:19.848Z,65.91
2022-11-16T04:04:19.823Z,66.68
2022-11-16T04:05:19.832Z,61.62
2022-11-16T04:06:19.828Z,68.23
2022-11-16T04:07:19.851Z,62.36
2022-11-16T04:08:19.788Z,62.27
2022-11-16T04:09:19.817Z,65.36
2022-11-16T04:10:19.776Z,65.11
2022-11-16T04:11:19.768Z,68.58
2022-11-16T04:12:19.783Z,69.64
2022-11-16T04:13:19.755Z,65.90
2022-11-16T04:14:19.756Z,67.31
2022-11-16T04:15:19.828Z,71.68
2022-11-16T04:16:19.747Z,71.53
2022-11-16T04:17:19.760Z,67.71
2022-11-16T04:18:19.737Z,64.84
2022-11-16T04:19:19.710Z,65.67
2022-11-16T04:20:19.717Z,69.11
2022-11-16T04:21:19.739Z,61.91
2022-11-16T04:22:19.709Z,66.42
2022-11-16T04:23:19.694Z,60.23
2022-11-16T04:24:19.723Z,72.29
2022-11-16T04:25:19.683Z,70.83
2022-11-16T04:26:19.670Z,63.95
2022-11-16T04:27:19.687Z,70.82
2022-11-16T04:28:19.654Z,65.10
2022-11-16T04:29:19.661Z,65.76
2022-11-16T04:30:19.659Z,73.70
2022-11-16T04:31:19.634Z,66.22
2022-11-16T04:32:19.639Z,72.00
2022-11-16T04:33:19.658Z,73.47
2022-11-16T04:34:19.630Z,72.86
2022-11-16T04:35:19.615Z,72.58
2022-11-16T04:36:20.853Z,74.72
2022-11-16T04:37:20.614Z,69.49
2022-11-16T04:38:19.614Z,70.01
2022-11-16T04:39:19.597Z,72.63
2022-11-16T04:40:19.610Z,72.50
2022-11-16T04:41:19.574Z,74.73
2022-11-16T04:42:19.570Z,74.59
2022-11-16T04:43:19.589Z,72.89
2022-11-16T04:44:19.566Z,76.84
2022-11-16T04:45:19.549Z,71.98
2022-11-16T04:46:19.551Z,76.17
2022-11-16T04:47:19.543Z,70.02
2022-11-16T04:48:19.543Z,73.46
2022-11-16T04:49:19.584Z,72.82
2022-11-16T04:50:19.518Z,65.73
2022-11-16T04:51:19.507Z,73.73
2022-11-16T04:52:19.512Z,78.14
2022-11-16T04:53:19.504Z,67.09
2022-11-16T04:54:19.491Z,70.24
2022-11-16T04:55:19.531Z,72.50
2022-11-16T04:56:19.477Z,65.63
2022-11-16T04:57:19.468Z,72.33
2022-11-16T04:58:21.332Z,76.15
2022-11-16T04:59:19.460Z,71.11
2022-11-16T05:00:19.486Z,70.20
2022-11-16T05:01:19.503Z,69.53
2022-11-16T05:02:19.445Z,74.68
2022-11-16T05:03:19.430Z,68.82
2022-11-16T05:04:19.809Z,75.93
2022-11-16T05:05:19.425Z,70.43
2022-11-16T05:06:19.412Z,68.47
2022-11-16T05:07:19.452Z,73.24
2022-11-16T05:08:19.389Z,69.43
2022-11-16T05:09:19.394Z,77.74
2022-11-16T05:10:19.379Z,72.41
2022-11-16T05:11:19.392Z,73.79
2022-11-16T05:12:19.375Z,73.99
2022-11-16T05:13:19.376Z,72.67
2022-11-16T05:14:19.355Z,70.72
2022-11-16T05:15:19.345Z,71.78
2022-11-16T05:16:19.386Z,71.93
2022-11-16T05:17:19.363Z,70.58
2022-11-16T05:18:19.331Z,70.94
2022-11-16T05:19:19.311Z,75.03
2022-11-16T05:20:19.304Z,73.48
2022-11-16T05:21:19.292Z,72.05
2022-11-16T05:22:20.313Z,69.26
2022-11-16T05:23:19.300Z,74.81
2022-11-16T05:24:19.285Z,72.95
2022-11-16T05:25:19.275Z,71.77
2022-11-16T05:26:19.269Z,73.81
2022-11-16T05:27:19.278Z,72.30
2022-11-16T05:28:19.269Z,72.61
2022-11-16T05:29:19.252Z,74.81
2022-11-16T05:30:19.255Z,73.29
2022-11-16T05:31:19.225Z,74.80
2022-11-16T05:32:19.233Z,76.72
2022-11-16T05:33:19.245Z,76.72
2022-11-16T05:34:19.254Z,77.62
2022-11-16T05:35:20.170Z,75.46
2022-11-16T05:36:19.209Z,76.79
2022-11-16T05:37:19.194Z,73.86
2022-11-16T05:38:19.209Z,76.46
2022-11-16T05:39:19.240Z,77.76
2022-11-16T05:40:19.176Z,74.26
2022-11-16T05:41:19.180Z,78.43
2022-11-16T05:42:19.167Z,78.04
2022-11-16T05:43:19.157Z,78.04
2022-11-16T05:44:19.173Z,71.35
2022-11-16T05:45:21.140Z,77.34
2022-11-16T05:46:20.177Z,77.11
2022-11-16T05:47:19.166Z,76.41
2022-11-16T05:48:19.134Z,74.32
2022-11-16T05:49:19.139Z,77.00
2022-11-16T05:50:19.110Z,74.94
2022-11-16T05:51:19.102Z,75.62
2022-11-16T05:52:19.134Z,75.27
2022-11-16T05:53:19.099Z,74.92
2022-11-16T05:54:19.136Z,77.20
2022-11-16T05:55:19.183Z,74.34
2022-11-16T05:56:19.103Z,74.73
2022-11-16T05:57:19.091Z,73.24
2022-11-16T05:58:19.086Z,71.48
2022-11-16T05:59:19.077Z,76.80
2022-11-16T06:00:19.057Z,73.43
2022-11-16T06:01:19.046Z,77.62
2022-11-16T06:02:19.031Z,75.09
2022-11-16T06:03:19.081Z,75.17
2022-11-16T06:04:24.187Z,73.00
2022-11-16T06:05:20.998Z,70.30
2022-11-16T06:06:19.000Z,74.32
2022-11-16T06:07:19.051Z,78.03
2022-11-16T06:08:19.004Z,75.94
2022-11-16T06:09:18.992Z,74.32
2022-11-16T06:10:19.013Z,74.86
2022-11-16T06:11:18.965Z,73.78
2022-11-16T06:12:18.956Z,74.31
2022-11-16T06:13:18.988Z,74.22
2022-11-16T06:14:18.967Z,75.42
2022-11-16T06:15:18.988Z,74.27
2022-11-16T06:16:19.170Z,76.12
2022-11-16T06:17:18.932Z,75.29
2022-11-16T06:18:18.940Z,77.38
2022-11-16T06:19:18.919Z,75.16
2022-11-16T06:20:18.959Z,76.95
2022-11-16T06:21:18.896Z,75.13
2022-11-16T06:22:18.896Z,74.85
2022-11-16T06:23:18.893Z,72.72
2022-11-16T06:24:18.903Z,73.07
2022-11-16T06:25:18.912Z,73.92
2022-11-16T06:26:18.873Z,75.52
2022-11-16T06:27:18.859Z,77.05
2022-11-16T06:28:18.889Z,77.12
2022-11-16T06:29:18.844Z,77.58
2022-11-16T06:30:19.857Z,76.53
2022-11-16T06:31:18.842Z,76.73
2022-11-16T06:32:18.856Z,78.76
2022-11-16T06:33:18.816Z,79.69
2022-11-16T06:34:18.805Z,74.95
2022-11-16T06:35:18.815Z,76.71
2022-11-16T06:36:18.792Z,72.03
2022-11-16T06:37:18.805Z,77.09
2022-11-16T06:38:18.840Z,75.56
2022-11-16T06:39:18.776Z,78.65
2022-11-16T06:40:18.783Z,79.15
2022-11-16T06:41:18.756Z,76.53
2022-11-16T06:42:18.760Z,72.15
2022-11-16T06:43:18.753Z,76.51
2022-11-16T06:44:18.747Z,77.11
2022-11-16T06:45:18.735Z,77.90
2022-11-16T06:46:18.736Z,76.89
2022-11-16T06:47:18.740Z,74.41
2022-11-16T06:48:18.943Z,73.54
2022-11-16T06:49:18.704Z,78.76
2022-11-16T06:50:18.701Z,76.11
2022-11-16T06:51:18.692Z,76.20
2022-11-16T06:52:18.691Z,75.55
2022-11-16T06:53:18.708Z,73.39
2022-11-16T06:54:18.691Z,74.26
2022-11-16T06:55:18.666Z,74.05
2022-11-16T06:56:18.655Z,73.50
2022-11-16T06:57:18.643Z,75.75
2022-11-16T06:58:18.683Z,71.33
2022-11-16T06:59:18.659Z,72.97
2022-11-16T07:00:18.624Z,75.90
2022-11-16T07:01:18.675Z,77.42
2022-11-16T07:02:18.623Z,69.28
2022-11-16T07:03:18.608Z,73.79
2022-11-16T07:04:18.715Z,75.64
2022-11-16T07:05:18.615Z,71.65
2022-11-16T07:06:18.640Z,76.50
2022-11-16T07:07:18.755Z,77.75
2022-11-16T07:08:18.575Z,74.49
2022-11-16T07:09:18.581Z,75.32
2022-11-16T07:10:18.567Z,75.75
2022-11-16T07:11:18.551Z,76.45
2022-11-16T07:12:18.583Z,76.68
2022-11-16T07:13:18.543Z,72.40
2022-11-16T07:14:18.546Z,75.68
2022-11-16T07:15:18.556Z,77.29
2022-11-16T07:16:18.527Z,77.07
2022-11-16T07:17:18.540Z,72.42
2022-11-16T07:18:18.531Z,75.75
2022-11-16T07:19:18.508Z,72.51
2022-11-16T07:20:18.504Z,78.39
2022-11-16T07:21:18.532Z,75.33
2022-11-16T07:22:18.487Z,79.02
2022-11-16T07:23:18.501Z,75.98
2022-11-16T07:24:18.475Z,71.24
2022-11-16T07:25:18.467Z,77.22
2022-11-16T07:26:18.486Z,78.65
2022-11-16T07:27:18.467Z,78.46
2022-11-16T07:28:18.473Z,74.42
2022-11-16T07:29:18.444Z,76.32
2022-11-16T07:30:18.445Z,76.13
2022-11-16T07:31:18.447Z,75.79
2022-11-16T07:32:18.443Z,76.69
2022-11-16T07:33:18.451Z,76.98
2022-11-16T07:34:18.403Z,72.25
2022-11-16T07:35:18.411Z,77.26
2022-11-16T07:36:18.486Z,77.14
2022-11-16T07:37:18.384Z,75.78
2022-11-16T07:38:18.449Z,73.97
2022-11-16T07:39:18.401Z,73.93
2022-11-16T07:40:18.397Z,79.39
2022-11-16T07:41:18.355Z,75.94
2022-11-16T07:42:18.362Z,76.41
2022-11-16T07:43:18.355Z,73.24
2022-11-16T07:44:18.462Z,73.56
2022-11-16T07:45:18.423Z,78.42
2022-11-16T07:47:20.322Z,71.36
2022-11-16T07:48:18.323Z,76.32
2022-11-16T07:49:18.335Z,75.62
2022-11-16T07:50:19.192Z,79.34
2022-11-16T07:51:18.310Z,74.46
2022-11-16T07:52:18.406Z,74.23
2022-11-16T07:53:18.279Z,74.56
2022-11-16T07:54:18.279Z,76.31
2022-11-16T07:55:18.267Z,72.91
2022-11-16T07:56:18.271Z,75.57
2022-11-16T07:57:18.271Z,79.76
2022-11-16T07:58:18.252Z,74.50
2022-11-16T07:59:18.239Z,73.66
2022-11-16T08:00:18.229Z,72.45
2022-11-16T08:01:18.303Z,75.19
2022-11-16T08:02:18.213Z,72.39
2022-11-16T08:03:23.333Z,74.98
2022-11-16T08:04:20.219Z,75.86
2022-11-16T08:05:18.203Z,74.92
2022-11-16T08:06:18.214Z,75.56
2022-11-16T08:07:18.224Z,77.25
2022-11-16T08:08:19.186Z,75.54
2022-11-16T08:09:18.175Z,73.57
2022-11-16T08:10:18.215Z,76.79
2022-11-16T08:11:18.174Z,76.53
2022-11-16T08:12:18.151Z,71.85
2022-11-16T08:13:18.150Z,75.68
2022-11-16T08:14:18.165Z,76.04
2022-11-16T08:15:18.137Z,77.41
2022-11-16T08:16:18.159Z,76.18
2022-11-16T08:17:18.137Z,76.77
2022-11-16T08:18:18.120Z,74.76
2022-11-16T08:19:18.116Z,74.99
2022-11-16T08:20:18.125Z,74.89
2022-11-16T08:21:18.084Z,72.77
2022-11-16T08:22:18.106Z,74.96
2022-11-16T08:23:18.097Z,70.99
2022-11-16T08:24:18.182Z,72.54
2022-11-16T08:25:18.057Z,74.05
2022-11-16T08:26:18.084Z,72.94
2022-11-16T08:27:18.066Z,73.13
2022-11-16T08:28:18.077Z,80.55
2022-11-16T08:29:18.037Z,81.23
2022-11-16T08:30:19.048Z,78.64
2022-11-16T08:31:18.029Z,76.35
2022-11-16T08:32:18.004Z,75.83
2022-11-16T08:33:18.051Z,77.14
2022-11-16T08:34:17.996Z,74.15
2022-11-16T08:35:17.996Z,76.34
2022-11-16T08:36:18.008Z,74.15
2022-11-16T08:37:17.977Z,76.56
2022-11-16T08:38:18.015Z,76.67
2022-11-16T08:39:17.996Z,75.71
2022-11-16T08:40:17.966Z,75.80
2022-11-16T08:41:17.990Z,75.84
2022-11-16T08:42:17.963Z,71.65
2022-11-16T08:43:17.947Z,75.61
2022-11-16T08:44:17.960Z,71.79
2022-11-16T08:45:17.978Z,74.29
2022-11-16T08:46:17.926Z,72.59
2022-11-16T08:47:17.920Z,76.69
2022-11-16T08:48:17.951Z,74.95
2022-11-16T08:49:17.907Z,69.91
2022-11-16T08:50:17.913Z,76.10
2022-11-16T08:51:19.532Z,74.50
2022-11-16T08:52:17.915Z,72.24
2022-11-16T08:53:17.892Z,72.83
2022-11-16T08:54:18.894Z,76.37
2022-11-16T08:55:17.879Z,73.49
2022-11-16T08:56:17.878Z,76.47
2022-11-16T08:57:17.871Z,72.55
2022-11-16T08:58:17.878Z,69.13
2022-11-16T08:59:17.831Z,76.39
2022-11-16T09:00:17.846Z,71.29
2022-11-16T09:01:17.997Z,73.06
2022-11-16T09:02:17.826Z,71.93
2022-11-16T09:03:17.817Z,72.66
2022-11-16T09:04:17.854Z,73.18
2022-11-16T09:05:17.827Z,77.13
2022-11-16T09:06:17.826Z,71.72
2022-11-16T09:07:17.839Z,73.65
2022-11-16T09:08:17.787Z,69.01
2022-11-16T09:09:17.786Z,74.39
2022-11-16T09:10:17.795Z,70.97
2022-11-16T09:11:17.823Z,74.32
2022-11-16T09:12:17.822Z,76.83
2022-11-16T09:13:17.789Z,70.96
2022-11-16T09:14:17.754Z,75.38
2022-11-16T09:15:17.745Z,72.69
2022-11-16T09:16:17.767Z,73.31
2022-11-16T09:17:22.935Z,70.58
2022-11-16T09:18:19.733Z,74.92
2022-11-16T09:19:17.758Z,74.68
2022-11-16T09:20:17.712Z,66.60
2022-11-16T09:21:17.737Z,65.60
2022-11-16T09:22:17.754Z,72.73
2022-11-16T09:23:23.825Z,72.08
2022-11-16T09:24:19.720Z,70.44
2022-11-16T09:25:17.708Z,73.05
2022-11-16T09:26:17.670Z,71.32
2022-11-16T09:27:17.680Z,73.23
2022-11-16T09:28:17.682Z,73.21
2022-11-16T09:29:17.664Z,72.15
2022-11-16T09:30:17.641Z,72.25
2022-11-16T09:31:22.978Z,73.53
2022-11-16T09:32:19.638Z,75.54
2022-11-16T09:33:17.621Z,74.68
2022-11-16T09:34:17.639Z,73.56
2022-11-16T09:35:17.611Z,72.70
2022-11-16T09:36:17.669Z,72.66
2022-11-16T09:37:17.630Z,67.30
2022-11-16T09:38:24.202Z,73.35
2022-11-16T09:39:30.591Z,73.23
2022-11-16T09:40:19.586Z,71.83
2022-11-16T09:41:17.566Z,66.31
2022-11-16T09:42:17.575Z,68.36
2022-11-16T09:43:17.549Z,72.07
2022-11-16T09:44:17.651Z,74.02
2022-11-16T09:45:17.545Z,72.73
2022-11-16T09:46:17.534Z,72.66
2022-11-16T09:47:17.549Z,74.45
2022-11-16T09:48:17.540Z,74.12
2022-11-16T09:49:18.038Z,72.99
2022-11-16T09:50:17.509Z,70.45
2022-11-16T09:51:17.513Z,71.61
2022-11-16T09:52:17.532Z,72.20
2022-11-16T09:53:17.488Z,67.56
2022-11-16T09:54:17.497Z,73.16
2022-11-16T09:55:17.478Z,67.83
2022-11-16T09:56:21.943Z,73.23
2022-11-16T09:57:18.512Z,72.19
2022-11-16T09:58:17.495Z,73.89
2022-11-16T09:59:18.381Z,72.26
2022-11-16T10:00:18.534Z,69.41
2022-11-16T10:01:17.496Z,71.89
2022-11-16T10:02:17.444Z,69.35
2022-11-16T10:03:17.431Z,71.59
2022-11-16T10:04:17.445Z,74.59
2022-11-16T10:05:17.413Z,73.07
2022-11-16T10:06:17.404Z,71.22
2022-11-16T10:07:17.487Z,73.84
2022-11-16T10:08:17.443Z,69.29
2022-11-16T10:09:17.383Z,75.12
2022-11-16T10:10:17.375Z,73.22
2022-11-16T10:11:17.408Z,74.49
2022-11-16T10:12:17.396Z,72.56
2022-11-16T10:13:17.353Z,71.96
2022-11-16T10:14:17.409Z,73.05
2022-11-16T10:15:17.338Z,70.38
2022-11-16T10:16:18.449Z,70.83
2022-11-16T10:17:17.345Z,69.79
2022-11-16T10:18:17.401Z,70.70
2022-11-16T10:19:17.333Z,73.65
2022-11-16T10:20:17.349Z,70.54
2022-11-16T10:21:17.304Z,73.82
2022-11-16T10:22:18.183Z,71.27
2022-11-16T10:23:17.320Z,72.74
2022-11-16T10:24:17.317Z,72.14
2022-11-16T10:25:17.288Z,72.16
2022-11-16T10:26:17.344Z,70.95
2022-11-16T10:27:21.844Z,72.11
2022-11-16T10:28:19.294Z,69.75
2022-11-16T10:29:17.253Z,74.31
2022-11-16T10:30:17.258Z,74.22
2022-11-16T10:31:17.263Z,70.11
2022-11-16T10:32:17.289Z,74.41
2022-11-16T10:33:17.229Z,74.06
2022-11-16T10:34:17.218Z,74.43
2022-11-16T10:35:17.245Z,72.15
2022-11-16T10:36:17.213Z,71.51
2022-11-16T10:37:17.200Z,74.38
2022-11-16T10:38:17.227Z,71.82
2022-11-16T10:39:17.197Z,71.62
2022-11-16T10:40:17.175Z,71.03
2022-11-16T10:41:17.216Z,74.00
2022-11-16T10:42:18.120Z,70.96
2022-11-16T10:43:17.167Z,75.08
2022-11-16T10:44:17.187Z,72.12
2022-11-16T10:45:17.151Z,73.74
2022-11-16T10:46:17.173Z,73.17
2022-11-16T10:47:17.132Z,73.15
2022-11-16T10:48:17.157Z,76.19
2022-11-16T10:49:17.147Z,71.22
2022-11-16T10:50:17.119Z,74.52
2022-11-16T10:51:17.126Z,72.20
2022-11-16T10:52:17.117Z,73.00
2022-11-16T10:53:17.126Z,72.81
2022-11-16T10:54:17.109Z,71.19
2022-11-16T10:55:17.075Z,73.41
2022-11-16T10:56:17.107Z,71.82
2022-11-16T10:57:17.076Z,72.05
2022-11-16T10:58:17.077Z,73.51
2022-11-16T10:59:17.059Z,76.16
2022-11-16T11:00:22.014Z,74.39
2022-11-16T11:01:19.154Z,78.39
2022-11-16T11:02:17.046Z,72.47
2022-11-16T11:03:18.051Z,72.83
2022-11-16T11:04:17.144Z,76.92
2022-11-16T11:05:17.014Z,72.17
2022-11-16T11:06:17.012Z,72.87
2022-11-16T11:07:17.059Z,72.16
2022-11-16T11:08:17.004Z,76.76
2022-11-16T11:09:17.011Z,70.70
2022-11-16T11:10:16.997Z,70.92
2022-11-16T11:11:17.019Z,72.21
2022-11-16T11:12:16.975Z,75.57
2022-11-16T11:13:17.006Z,68.18
2022-11-16T11:14:16.972Z,71.00
2022-11-16T11:15:21.323Z,73.09
2022-11-16T11:16:17.957Z,72.39
2022-11-16T11:17:16.951Z,71.81
2022-11-16T11:18:16.972Z,74.25
2022-11-16T11:19:16.944Z,73.00
2022-11-16T11:20:17.227Z,68.17
2022-11-16T11:21:16.929Z,71.29
2022-11-16T11:22:16.925Z,74.58
2022-11-16T11:23:16.931Z,73.17
2022-11-16T11:24:43.462Z,70.34
2022-11-16T11:25:18.960Z,72.02
2022-11-16T11:26:16.908Z,76.22
2022-11-16T11:27:16.958Z,74.29
2022-11-16T11:28:16.897Z,74.27
2022-11-16T11:29:16.912Z,76.03
2022-11-16T11:30:17.002Z,73.72
2022-11-16T11:31:16.894Z,73.84
2022-11-16T11:32:20.951Z,72.26
2022-11-16T11:33:18.875Z,73.06
2022-11-16T11:34:16.909Z,70.84
2022-11-16T11:35:16.853Z,75.90
2022-11-16T11:36:16.866Z,71.69
2022-11-16T11:37:16.851Z,73.67
2022-11-16T11:38:16.836Z,74.12
2022-11-16T11:39:16.889Z,77.53
2022-11-16T11:40:16.809Z,73.32
2022-11-16T11:41:16.813Z,73.75
2022-11-16T11:42:16.836Z,73.15
2022-11-16T11:43:18.978Z,73.07
2022-11-16T11:44:18.702Z,70.09
2022-11-16T11:45:16.800Z,69.62
2022-11-16T11:46:16.776Z,72.15
2022-11-16T11:47:55.538Z,72.72
2022-11-16T11:48:18.800Z,64.71
2022-11-16T11:49:16.792Z,72.09
2022-11-16T11:50:16.805Z,72.73
2022-11-16T11:51:16.785Z,75.09
2022-11-16T11:52:16.765Z,73.02
2022-11-16T11:53:16.757Z,66.73
2022-11-16T11:54:16.744Z,71.06
2022-11-16T11:55:16.732Z,73.56
2022-11-16T11:56:16.727Z,74.48
2022-11-16T11:57:16.724Z,65.91
2022-11-16T11:58:16.710Z,71.82
2022-11-16T11:59:16.712Z,67.78
2022-11-16T12:00:16.688Z,71.62
2022-11-16T12:01:20.850Z,70.73
2022-11-16T12:02:18.720Z,71.44
2022-11-16T12:03:16.722Z,74.44
2022-11-16T12:04:16.660Z,73.03
2022-11-16T12:05:17.664Z,73.87
2022-11-16T12:06:16.684Z,70.88
2022-11-16T12:07:16.716Z,74.35
2022-11-16T12:08:16.656Z,72.53
2022-11-16T12:09:16.641Z,71.91
2022-11-16T12:10:16.637Z,66.81
2022-11-16T12:11:16.628Z,72.46
2022-11-16T12:12:16.664Z,68.10
2022-11-16T12:13:16.612Z,70.06
2022-11-16T12:14:16.598Z,73.32
2022-11-16T12:15:16.604Z,70.44
2022-11-16T12:16:16.585Z,72.87
2022-11-16T12:17:16.609Z,72.10
2022-11-16T12:18:16.577Z,72.44
2022-11-16T12:19:16.576Z,71.53
2022-11-16T12:20:17.581Z,72.68
2022-11-16T12:21:16.589Z,69.40
2022-11-16T12:22:16.548Z,72.02
2022-11-16T12:23:16.548Z,71.17
2022-11-16T12:24:16.660Z,71.33
2022-11-16T12:25:16.539Z,73.70
2022-11-16T12:26:16.542Z,68.56
2022-11-16T12:27:16.537Z,72.23
2022-11-16T12:28:16.524Z,72.95
2022-11-16T12:29:16.511Z,68.56
2022-11-16T12:30:16.523Z,69.01
2022-11-16T12:31:16.483Z,72.93
2022-11-16T12:32:16.493Z,72.74
2022-11-16T12:33:16.515Z,73.98
2022-11-16T12:34:16.505Z,74.14
2022-11-16T12:35:16.465Z,72.67
2022-11-16T12:36:16.464Z,69.09
2022-11-16T12:37:16.471Z,72.21
2022-11-16T12:38:19.459Z,69.53
2022-11-16T12:39:17.452Z,74.34
2022-11-16T12:40:16.528Z,75.07
2022-11-16T12:41:16.448Z,75.37
2022-11-16T12:42:16.415Z,74.32
2022-11-16T12:43:17.434Z,76.50
2022-11-16T12:44:16.436Z,76.45
2022-11-16T12:45:16.418Z,74.88
2022-11-16T12:46:17.106Z,75.20
2022-11-16T12:47:16.403Z,75.54
2022-11-16T12:48:16.415Z,76.43
2022-11-16T12:49:16.407Z,75.43
2022-11-16T12:50:16.408Z,75.77
2022-11-16T12:51:16.361Z,72.75
2022-11-16T12:52:16.381Z,73.96
2022-11-16T12:53:16.388Z,72.26